Time;durP1;ratioP1;P1;durP2;ratioP2;P2;SDS_P1;SDS_P2;PMS_P1;PMS_P2;Temp;Humidity;BMP_temperature;BMP_pressure;BME280_temperature;BME280_humidity;BME280_pressure;Samples;Min_cycle;Max_cycle;Signal;HPM_P1;HPM_P2
2024/01/10 00:01:20;;;;;;;20.25;11.13;;;-3.00;99.90;;;;;;5111631;28;20048;-84
2024/01/10 00:03:46;;;;;;;18.45;10.88;;;-2.90;99.90;;;;;;5093522;28;20032;-84
2024/01/10 00:06:12;;;;;;;17.38;9.55;;;-2.90;99.90;;;;;;5124301;27;20058;-84
2024/01/10 00:08:38;;;;;;;19.38;11.43;;;-2.90;99.90;;;;;;5096428;28;20032;-84
2024/01/10 00:11:04;;;;;;;19.33;9.43;;;-2.90;99.90;;;;;;5098314;28;20035;-84
2024/01/10 00:13:32;;;;;;;15.45;8.80;;;-3.00;99.90;;;;;;5097064;28;20495;-84
2024/01/10 00:15:58;;;;;;;18.23;11.27;;;-2.90;99.90;;;;;;5115865;28;20074;-84
2024/01/10 00:18:25;;;;;;;18.52;10.30;;;-2.90;99.90;;;;;;5116138;28;20494;-84
2024/01/10 00:20:54;;;;;;;12.40;6.43;;;-3.00;99.90;;;;;;5113024;27;20035;-84
2024/01/10 00:23:21;;;;;;;18.52;10.50;;;-2.90;99.90;;;;;;5097535;28;20036;-83
2024/01/10 00:25:47;;;;;;;20.20;10.80;;;-2.90;99.90;;;;;;5115681;28;20084;-84
2024/01/10 00:28:13;;;;;;;16.33;9.77;;;-2.90;99.90;;;;;;5132747;27;20543;-84
2024/01/10 00:30:38;;;;;;;20.02;11.05;;;-2.90;99.90;;;;;;5145103;27;20118;-83
2024/01/10 00:33:04;;;;;;;20.38;11.93;;;-2.90;99.90;;;;;;5131377;27;20491;-83
2024/01/10 00:35:31;;;;;;;21.50;10.65;;;-2.90;99.90;;;;;;5115200;27;20165;-84
2024/01/10 00:37:56;;;;;;;19.83;11.32;;;-2.90;99.90;;;;;;5149900;27;20040;-84
2024/01/10 00:40:23;;;;;;;17.65;9.73;;;-3.00;99.90;;;;;;5097119;28;20407;-84
2024/01/10 00:42:48;;;;;;;18.55;11.27;;;-3.00;99.90;;;;;;5132550;27;20039;-84
2024/01/10 00:45:14;;;;;;;21.35;12.32;;;-3.00;99.90;;;;;;5113173;27;20036;-84
2024/01/10 00:47:39;;;;;;;19.73;11.50;;;-3.00;99.90;;;;;;5115214;28;20036;-84
2024/01/10 00:50:06;;;;;;;21.20;11.13;;;-3.10;99.90;;;;;;5096904;28;20042;-84
2024/01/10 00:52:31;;;;;;;19.63;12.00;;;-3.10;99.90;;;;;;5099278;28;20407;-83
2024/01/10 00:54:57;;;;;;;21.05;12.15;;;-3.10;99.90;;;;;;5094842;27;20309;-84
2024/01/10 00:57:22;;;;;;;20.08;11.07;;;-3.10;99.90;;;;;;5098132;28;20039;-84
2024/01/10 00:59:48;;;;;;;18.88;11.45;;;-3.10;99.90;;;;;;5130970;27;20100;-84
2024/01/10 01:02:14;;;;;;;17.60;9.68;;;-3.10;99.90;;;;;;5146369;27;20039;-83
2024/01/10 01:04:39;;;;;;;21.98;10.85;;;-3.20;99.90;;;;;;5130293;27;20038;-84
2024/01/10 01:07:05;;;;;;;19.27;11.05;;;-3.20;99.90;;;;;;5097001;28;20032;-84
2024/01/10 01:09:30;;;;;;;18.80;10.73;;;-3.20;99.90;;;;;;5097285;28;20115;-83
2024/01/10 01:11:56;;;;;;;18.73;10.60;;;-3.20;99.90;;;;;;5097911;28;20083;-84
2024/01/10 01:14:21;;;;;;;19.02;10.77;;;-3.30;99.90;;;;;;5113904;28;20096;-83
2024/01/10 01:16:47;;;;;;;20.73;10.63;;;-3.30;99.90;;;;;;5112397;28;20043;-83
2024/01/10 01:19:13;;;;;;;16.45;9.43;;;-3.30;99.90;;;;;;5114126;28;20046;-83
2024/01/10 01:21:38;;;;;;;17.20;10.10;;;-3.30;99.90;;;;;;5131641;27;20040;-84
2024/01/10 01:24:04;;;;;;;18.13;9.82;;;-3.30;99.90;;;;;;5114586;28;20039;-84
2024/01/10 01:26:30;;;;;;;18.38;10.10;;;-3.30;99.90;;;;;;5095631;28;20059;-83
2024/01/10 01:28:55;;;;;;;19.45;10.70;;;-3.30;99.90;;;;;;5095379;28;20038;-83
2024/01/10 01:31:21;;;;;;;17.08;10.15;;;-3.30;99.90;;;;;;5114364;28;20070;-83
2024/01/10 01:33:47;;;;;;;20.50;10.73;;;-3.30;99.90;;;;;;5113432;27;20053;-83
2024/01/10 01:36:12;;;;;;;19.25;11.93;;;-3.30;99.90;;;;;;5113777;27;20040;-83
2024/01/10 01:38:38;;;;;;;20.92;11.52;;;-3.40;99.90;;;;;;5112567;28;20031;-83
2024/01/10 01:41:05;;;;;;;21.17;12.02;;;-3.40;99.90;;;;;;5131680;27;20031;-84
2024/01/10 01:43:31;;;;;;;20.52;12.90;;;-3.40;99.90;;;;;;5114137;28;20438;-83
2024/01/10 01:45:57;;;;;;;23.40;13.10;;;-3.40;99.90;;;;;;5095084;28;20545;-83
2024/01/10 01:48:25;;;;;;;23.30;12.30;;;-3.40;99.90;;;;;;5127888;27;20122;-83
2024/01/10 01:51:04;;;;;;;23.95;13.43;;;-3.40;99.90;;;;;;5100140;28;20039;-83
2024/01/10 01:53:30;;;;;;;20.98;12.68;;;-3.40;99.90;;;;;;5114476;27;20535;-83
2024/01/10 01:55:56;;;;;;;22.33;13.43;;;-3.40;99.90;;;;;;5086250;28;20062;-83
2024/01/10 01:58:22;;;;;;;21.83;13.50;;;-3.40;99.90;;;;;;5110624;28;20048;-83
2024/01/10 02:00:49;;;;;;;22.00;11.98;;;-3.50;99.90;;;;;;5137037;27;20039;-83
2024/01/10 02:03:15;;;;;;;19.85;11.77;;;-3.50;99.90;;;;;;5134182;27;20039;-83
2024/01/10 02:05:41;;;;;;;19.40;10.43;;;-3.40;99.90;;;;;;5122161;27;20031;-83
2024/01/10 02:08:07;;;;;;;20.48;12.65;;;-3.50;99.90;;;;;;5095888;28;20054;-83
2024/01/10 02:10:34;;;;;;;21.95;13.15;;;-3.50;99.90;;;;;;5096650;28;20032;-82
2024/01/10 02:13:00;;;;;;;20.05;11.70;;;-3.60;99.90;;;;;;5113144;28;20055;-83
2024/01/10 02:15:25;;;;;;;24.02;13.25;;;-3.60;99.90;;;;;;5112658;28;20040;-83
2024/01/10 02:17:51;;;;;;;21.33;11.90;;;-3.60;99.90;;;;;;5129594;27;20045;-83
2024/01/10 02:20:17;;;;;;;20.92;12.65;;;-3.60;99.90;;;;;;5148065;27;20427;-83
2024/01/10 02:22:43;;;;;;;22.08;11.95;;;-3.60;99.90;;;;;;5113393;28;20054;-83
2024/01/10 02:25:09;;;;;;;19.00;10.77;;;-3.60;99.90;;;;;;5147629;27;20040;-83
2024/01/10 02:27:39;;;;;;;20.63;12.30;;;-3.60;99.90;;;;;;5112189;28;20088;-83
2024/01/10 02:30:06;;;;;;;22.92;12.30;;;-3.60;99.90;;;;;;5096709;28;20122;-83
2024/01/10 02:32:32;;;;;;;20.65;11.43;;;-3.60;99.90;;;;;;5095532;28;20043;-83
2024/01/10 02:34:58;;;;;;;20.40;11.85;;;-3.60;99.90;;;;;;5130217;27;20457;-83
2024/01/10 02:37:24;;;;;;;17.27;9.93;;;-3.50;99.90;;;;;;5146466;27;20081;-83
2024/01/10 02:39:50;;;;;;;19.77;10.85;;;-3.50;99.90;;;;;;5096081;28;20078;-83
2024/01/10 02:42:16;;;;;;;20.60;10.90;;;-3.50;99.90;;;;;;5095887;28;20054;-83
2024/01/10 02:44:42;;;;;;;18.65;11.48;;;-3.60;99.90;;;;;;5095894;28;20070;-83
2024/01/10 02:47:08;;;;;;;17.70;10.15;;;-3.60;99.90;;;;;;5096221;28;20078;-83
2024/01/10 02:49:34;;;;;;;19.08;11.57;;;-3.50;99.90;;;;;;5079588;28;20039;-83
2024/01/10 02:52:00;;;;;;;21.55;11.93;;;-3.50;99.90;;;;;;5075797;28;20450;-83
2024/01/10 02:54:26;;;;;;;20.48;12.50;;;-3.50;99.90;;;;;;5088121;28;20036;-83
2024/01/10 02:56:51;;;;;;;20.10;10.40;;;-3.50;99.90;;;;;;5130151;27;20035;-83
2024/01/10 02:59:17;;;;;;;21.15;12.75;;;-3.50;99.90;;;;;;5110646;28;20055;-83
2024/01/10 03:01:43;;;;;;;22.27;12.52;;;-3.50;99.90;;;;;;5147317;27;20036;-83
2024/01/10 03:04:10;;;;;;;20.88;12.43;;;-3.50;99.90;;;;;;5113010;28;20461;-83
2024/01/10 03:06:36;;;;;;;21.40;12.23;;;-3.50;99.90;;;;;;5146155;27;20043;-83
2024/01/10 03:09:02;;;;;;;20.23;12.23;;;-3.50;99.90;;;;;;5128533;27;20079;-83
2024/01/10 03:11:27;;;;;;;17.70;10.77;;;-3.40;99.90;;;;;;5095551;28;20035;-82
2024/01/10 03:14:10;;;;;;;19.88;11.13;;;-3.50;99.90;;;;;;5112517;28;20400;-83
2024/01/10 03:16:37;;;;;;;18.98;11.55;;;-3.40;99.90;;;;;;5092112;28;20503;-83
2024/01/10 03:19:03;;;;;;;19.75;12.07;;;-3.40;99.90;;;;;;5129107;27;20036;-83
2024/01/10 03:21:29;;;;;;;21.70;11.82;;;-3.40;99.90;;;;;;5112424;28;20058;-83
2024/01/10 03:23:59;;;;;;;23.73;13.40;;;-3.40;99.90;;;;;;5094951;28;20122;-83
2024/01/10 03:26:26;;;;;;;21.23;12.98;;;-3.40;99.90;;;;;;5111989;28;20441;-83
2024/01/10 03:28:52;;;;;;;20.85;12.63;;;-3.40;99.90;;;;;;5112420;28;20046;-83
2024/01/10 03:31:18;;;;;;;21.73;13.50;;;-3.40;99.90;;;;;;5093933;28;20118;-83
2024/01/10 03:33:44;;;;;;;21.67;13.68;;;-3.40;99.90;;;;;;5129669;28;20035;-83
2024/01/10 03:36:15;;;;;;;21.45;11.63;;;-3.40;99.90;;;;;;5146523;27;20050;-83
2024/01/10 03:38:41;;;;;;;21.57;12.43;;;-3.40;99.90;;;;;;5146297;27;20043;-83
2024/01/10 03:41:06;;;;;;;21.15;12.57;;;-3.40;99.90;;;;;;5127209;28;20699;-83
2024/01/10 03:43:32;;;;;;;20.33;12.82;;;-3.40;99.90;;;;;;5112155;28;20448;-83
2024/01/10 03:45:58;;;;;;;21.33;12.48;;;-3.40;99.90;;;;;;5129287;28;20376;-83
2024/01/10 03:48:24;;;;;;;21.00;12.95;;;-3.40;99.90;;;;;;5129184;28;20039;-83
2024/01/10 03:50:50;;;;;;;20.55;12.95;;;-3.40;99.90;;;;;;5128137;28;20118;-83
2024/01/10 03:53:16;;;;;;;22.75;13.52;;;-3.40;99.90;;;;;;5112163;28;20105;-83
2024/01/10 03:55:41;;;;;;;20.52;12.20;;;-3.40;99.90;;;;;;5111960;28;20040;-83
2024/01/10 03:58:07;;;;;;;22.33;12.70;;;-3.50;99.90;;;;;;5129019;28;20047;-82
2024/01/10 04:00:32;;;;;;;19.73;11.48;;;-3.50;99.90;;;;;;5097804;28;20182;-83
2024/01/10 04:02:59;;;;;;;21.55;12.32;;;-3.40;99.90;;;;;;5088499;28;20125;-82
2024/01/10 04:05:25;;;;;;;21.35;12.02;;;-3.50;99.90;;;;;;5104226;28;20031;-83
2024/01/10 04:07:51;;;;;;;20.90;11.23;;;-3.50;99.90;;;;;;5092133;28;20468;-83
2024/01/10 04:10:17;;;;;;;19.45;11.73;;;-3.40;99.90;;;;;;5090629;28;20043;-83
2024/01/10 04:12:44;;;;;;;20.25;12.15;;;-3.40;99.90;;;;;;5102570;28;20104;-82
2024/01/10 04:15:10;;;;;;;20.23;11.23;;;-3.50;99.90;;;;;;5105627;28;20047;-82
2024/01/10 04:17:36;;;;;;;16.80;10.18;;;-3.50;99.90;;;;;;5125093;27;20035;-83
2024/01/10 04:20:02;;;;;;;20.50;11.63;;;-3.50;99.90;;;;;;5119392;27;20047;-83
2024/01/10 04:22:28;;;;;;;21.73;11.80;;;-3.50;99.90;;;;;;5129952;27;20071;-82
2024/01/10 04:24:57;;;;;;;20.45;11.52;;;-3.60;99.90;;;;;;5104278;28;20127;-82
2024/01/10 04:27:23;;;;;;;18.63;11.30;;;-3.50;99.90;;;;;;5103076;28;20054;-83
2024/01/10 04:29:49;;;;;;;19.13;11.57;;;-3.50;99.90;;;;;;5113646;27;20410;-83
2024/01/10 04:32:14;;;;;;;29.58;21.23;;;-3.60;99.90;;;;;;5102014;28;20511;-83
2024/01/10 04:34:40;;;;;;;19.98;12.43;;;-3.60;99.90;;;;;;5105531;28;20479;-81
2024/01/10 04:37:09;;;;;;;24.23;18.42;;;-3.60;99.90;;;;;;5091414;27;20115;-82
2024/01/10 04:39:35;;;;;;;20.65;13.85;;;-3.50;99.90;;;;;;5129154;27;20396;-82
2024/01/10 04:42:01;;;;;;;19.50;11.10;;;-3.60;99.90;;;;;;5094198;27;20416;-83
2024/01/10 04:44:27;;;;;;;21.20;11.75;;;-3.60;99.90;;;;;;5126791;27;20561;-82
2024/01/10 04:46:53;;;;;;;19.48;11.18;;;-3.60;99.90;;;;;;5106257;27;20045;-83
2024/01/10 04:49:18;;;;;;;21.10;11.80;;;-3.60;99.90;;;;;;5132661;27;20548;-83
2024/01/10 04:51:45;;;;;;;18.73;11.20;;;-3.60;99.90;;;;;;5096303;27;20036;-82
2024/01/10 04:54:11;;;;;;;19.85;11.43;;;-3.60;99.90;;;;;;5120777;27;20031;-83
2024/01/10 04:56:37;;;;;;;18.73;11.05;;;-3.50;99.90;;;;;;5120605;27;20471;-82
2024/01/10 04:59:03;;;;;;;17.80;11.18;;;-3.60;99.90;;;;;;5125711;27;20653;-83
2024/01/10 05:01:29;;;;;;;19.17;11.73;;;-3.60;99.90;;;;;;5098115;27;20040;-82
2024/01/10 05:03:55;;;;;;;20.17;11.73;;;-3.60;99.90;;;;;;5105692;27;20043;-82
2024/01/10 05:06:21;;;;;;;20.20;11.32;;;-3.70;99.90;;;;;;5096038;27;20480;-82
2024/01/10 05:08:46;;;;;;;20.25;12.13;;;-3.70;99.90;;;;;;5106440;27;20036;-83
2024/01/10 05:11:14;;;;;;;18.08;10.85;;;-3.70;99.90;;;;;;5128439;27;20089;-83
2024/01/10 05:13:40;;;;;;;19.70;11.15;;;-3.70;99.90;;;;;;5123319;27;20040;-82
2024/01/10 05:16:06;;;;;;;19.95;11.30;;;-3.70;99.90;;;;;;5123211;27;20432;-83
2024/01/10 05:18:31;;;;;;;18.25;10.98;;;-3.70;99.90;;;;;;5106980;27;20044;-82
2024/01/10 05:20:58;;;;;;;18.65;10.75;;;-3.70;99.90;;;;;;5127372;27;20047;-83
2024/01/10 05:23:23;;;;;;;19.70;10.95;;;-3.70;99.90;;;;;;5108031;27;20460;-83
2024/01/10 05:25:49;;;;;;;19.92;11.77;;;-3.70;99.90;;;;;;5075748;27;20031;-83
2024/01/10 05:28:15;;;;;;;20.60;11.13;;;-3.80;99.90;;;;;;5127921;27;20114;-83
2024/01/10 05:30:43;;;;;;;18.70;10.18;;;-3.80;99.90;;;;;;5094886;27;20039;-82
2024/01/10 05:33:08;;;;;;;18.38;10.00;;;-3.80;99.90;;;;;;5128186;27;20044;-82
2024/01/10 05:35:35;;;;;;;20.50;11.10;;;-3.80;99.90;;;;;;5122504;27;20039;-82
2024/01/10 05:38:02;;;;;;;20.50;11.45;;;-3.80;99.90;;;;;;5122833;27;20122;-82
2024/01/10 05:40:30;;;;;;;16.80;11.05;;;-3.80;99.90;;;;;;5095440;27;20050;-82
2024/01/10 05:42:56;;;;;;;18.10;11.32;;;-3.90;99.90;;;;;;5079194;27;20544;-82
2024/01/10 05:45:21;;;;;;;19.98;11.40;;;-3.90;99.90;;;;;;5114630;27;20032;-82
2024/01/10 05:47:48;;;;;;;20.48;10.40;;;-3.90;99.90;;;;;;5105183;27;20036;-83
2024/01/10 05:50:14;;;;;;;19.48;11.35;;;-4.00;99.90;;;;;;5125268;27;20047;-82
2024/01/10 05:52:40;;;;;;;18.50;10.40;;;-3.90;99.90;;;;;;5119550;27;20585;-83
2024/01/10 05:55:08;;;;;;;19.17;11.18;;;-4.00;99.90;;;;;;5075628;28;20051;-83
2024/01/10 05:57:34;;;;;;;18.50;10.30;;;-4.00;99.90;;;;;;5090156;28;20395;-83
2024/01/10 06:00:00;;;;;;;19.73;12.30;;;-4.00;99.90;;;;;;5095743;28;20059;-82
2024/01/10 06:02:26;;;;;;;20.70;11.35;;;-4.00;99.90;;;;;;5095353;27;20039;-82
2024/01/10 06:04:52;;;;;;;21.55;11.80;;;-4.00;99.90;;;;;;5077780;27;20067;-82
2024/01/10 06:07:18;;;;;;;19.92;11.40;;;-4.00;99.90;;;;;;5074612;27;20172;-82
2024/01/10 06:09:44;;;;;;;18.80;11.73;;;-4.00;99.90;;;;;;5098431;27;20053;-82
2024/01/10 06:12:09;;;;;;;19.48;11.65;;;-4.00;99.90;;;;;;5122935;27;20171;-82
2024/01/10 06:14:35;;;;;;;19.60;11.57;;;-4.00;99.90;;;;;;5111929;27;20535;-83
2024/01/10 06:17:03;;;;;;;19.30;12.07;;;-4.10;99.90;;;;;;5082301;28;20100;-83
2024/01/10 06:19:30;;;;;;;19.52;11.77;;;-4.00;99.90;;;;;;5124647;27;20228;-83
2024/01/10 06:21:57;;;;;;;23.45;12.57;;;-4.00;99.90;;;;;;5086143;27;20035;-83
2024/01/10 06:24:22;;;;;;;19.30;12.00;;;-3.90;99.90;;;;;;5083623;28;20056;-82
2024/01/10 06:26:49;;;;;;;22.50;13.60;;;-4.00;99.90;;;;;;5125286;27;20472;-82
2024/01/10 06:29:15;;;;;;;22.00;12.30;;;-4.00;99.90;;;;;;5100408;27;20085;-82
2024/01/10 06:31:41;;;;;;;23.52;12.77;;;-4.00;99.90;;;;;;5086567;27;20498;-82
2024/01/10 06:34:07;;;;;;;20.15;11.88;;;-4.00;99.90;;;;;;5114577;27;20032;-83
2024/01/10 06:36:33;;;;;;;19.63;11.27;;;-4.10;99.90;;;;;;5126208;27;20071;-82
2024/01/10 06:38:58;;;;;;;19.23;11.93;;;-4.10;99.90;;;;;;5126857;27;20567;-82
2024/01/10 06:41:24;;;;;;;18.65;11.35;;;-4.10;99.90;;;;;;5093612;27;20562;-82
2024/01/10 06:43:51;;;;;;;19.98;12.13;;;-4.10;99.90;;;;;;5124168;27;20051;-82
2024/01/10 06:46:17;;;;;;;20.35;12.40;;;-4.00;99.90;;;;;;5092711;27;20124;-82
2024/01/10 06:48:42;;;;;;;20.85;12.13;;;-4.00;99.90;;;;;;5114613;27;20118;-82
2024/01/10 06:51:15;;;;;;;19.98;12.40;;;-4.00;99.90;;;;;;5079608;28;20032;-82
2024/01/10 06:53:41;;;;;;;19.30;12.05;;;-4.00;99.90;;;;;;5088036;27;20100;-83
2024/01/10 06:56:09;;;;;;;19.95;11.55;;;-4.00;99.90;;;;;;5104309;27;20043;-82
2024/01/10 06:58:35;;;;;;;21.65;11.82;;;-4.00;99.90;;;;;;5135804;27;20878;-82
2024/01/10 07:01:00;;;;;;;19.00;11.82;;;-4.00;99.90;;;;;;5116096;27;20122;-83
2024/01/10 07:03:27;;;;;;;20.08;10.98;;;-4.00;99.90;;;;;;5081223;28;20039;-82
2024/01/10 07:05:52;;;;;;;20.48;12.15;;;-4.00;99.90;;;;;;5091037;27;20092;-82
2024/01/10 07:08:18;;;;;;;22.35;12.63;;;-4.00;99.90;;;;;;5104052;27;20036;-82
2024/01/10 07:10:44;;;;;;;20.23;11.52;;;-4.00;99.90;;;;;;5129890;27;20039;-82
2024/01/10 07:13:10;;;;;;;20.98;12.50;;;-4.00;99.90;;;;;;5112036;27;20039;-82
2024/01/10 07:15:37;;;;;;;21.00;11.38;;;-4.10;99.90;;;;;;5078411;28;20449;-82
2024/01/10 07:18:03;;;;;;;24.55;11.95;;;-4.00;99.90;;;;;;5110874;27;20142;-82
2024/01/10 07:20:28;;;;;;;19.75;11.80;;;-4.00;99.90;;;;;;5101143;27;20122;-83
2024/01/10 07:22:54;;;;;;;20.27;11.85;;;-4.00;99.90;;;;;;5095023;28;20039;-83
2024/01/10 07:25:22;;;;;;;23.67;13.10;;;-4.00;99.90;;;;;;5110473;27;20039;-82
2024/01/10 07:27:48;;;;;;;23.15;13.50;;;-4.00;99.90;;;;;;5118814;27;20063;-83
2024/01/10 07:30:13;;;;;;;20.23;13.98;;;-4.10;99.90;;;;;;5083109;28;20456;-83
2024/01/10 07:32:43;;;;;;;23.98;13.70;;;-4.10;99.90;;;;;;5115643;28;20039;-83
2024/01/10 07:35:10;;;;;;;21.70;12.55;;;-4.00;99.90;;;;;;5083516;28;20102;-83
2024/01/10 07:37:40;;;;;;;20.88;12.75;;;-4.10;99.90;;;;;;5096045;28;20043;-83
2024/01/10 07:40:08;;;;;;;23.42;12.93;;;-4.10;99.90;;;;;;5108317;28;20122;-82
2024/01/10 07:42:34;;;;;;;21.05;12.90;;;-4.10;99.90;;;;;;5080262;28;20048;-82
2024/01/10 07:45:03;;;;;;;22.00;12.75;;;-4.10;99.90;;;;;;5115763;28;20063;-83
2024/01/10 07:47:37;;;;;;;22.77;12.45;;;-4.00;99.90;;;;;;5078836;28;20480;-82
2024/01/10 07:50:07;;;;;;;20.58;12.43;;;-4.10;99.90;;;;;;5098035;28;20028;-83
2024/01/10 07:52:33;;;;;;;20.30;12.80;;;-4.10;99.90;;;;;;5083713;28;20040;-83
2024/01/10 07:54:59;;;;;;;20.52;11.73;;;-4.00;99.90;;;;;;5130829;27;20040;-83
2024/01/10 07:57:24;;;;;;;24.38;13.63;;;-4.00;99.90;;;;;;5088465;28;20048;-83
2024/01/10 07:59:50;;;;;;;23.13;13.77;;;-4.00;99.90;;;;;;5114910;27;20415;-82
2024/01/10 08:02:16;;;;;;;22.35;13.07;;;-4.00;99.90;;;;;;5088950;28;20078;-83
2024/01/10 08:04:42;;;;;;;25.15;14.93;;;-4.00;99.90;;;;;;5125861;28;20055;-83
2024/01/10 08:07:08;;;;;;;20.50;12.85;;;-4.00;99.90;;;;;;5076143;28;20837;-83
2024/01/10 08:09:33;;;;;;;22.55;13.20;;;-4.00;99.90;;;;;;5128658;27;20521;-82
2024/01/10 08:11:59;;;;;;;24.38;13.95;;;-4.00;99.90;;;;;;5077299;27;20066;-83
2024/01/10 08:14:25;;;;;;;25.80;14.52;;;-3.90;99.90;;;;;;5084256;28;20133;-82
2024/01/10 08:16:53;;;;;;;23.75;14.05;;;-3.90;99.90;;;;;;5117569;27;20028;-83
2024/01/10 08:19:18;;;;;;;24.45;13.93;;;-3.90;99.90;;;;;;5113599;27;20043;-82
2024/01/10 08:21:44;;;;;;;21.88;12.18;;;-3.90;99.90;;;;;;5099127;27;20221;-82
2024/01/10 08:24:10;;;;;;;23.33;12.57;;;-3.70;99.90;;;;;;5079601;27;20040;-83
2024/01/10 08:26:37;;;;;;;24.20;14.15;;;-3.70;99.90;;;;;;5114359;27;20086;-83
2024/01/10 08:29:03;;;;;;;23.63;13.35;;;-3.80;99.90;;;;;;5114043;27;20059;-83
2024/01/10 08:31:29;;;;;;;23.48;12.45;;;-3.80;99.90;;;;;;5099824;27;20055;-83
2024/01/10 08:33:56;;;;;;;23.73;13.25;;;-3.80;99.90;;;;;;5139609;27;20032;-83
2024/01/10 08:36:24;;;;;;;26.20;12.93;;;-3.70;99.90;;;;;;5083390;28;20392;-83
2024/01/10 08:38:50;;;;;;;26.23;13.30;;;-3.70;99.90;;;;;;5078968;27;20039;-83
2024/01/10 08:41:16;;;;;;;24.23;12.52;;;-3.70;99.90;;;;;;5129528;27;20041;-83
2024/01/10 08:43:41;;;;;;;22.00;11.00;;;-3.80;99.90;;;;;;5087118;27;20032;-82
2024/01/10 08:46:10;;;;;;;25.17;12.68;;;-3.70;99.90;;;;;;5074976;27;20080;-83
2024/01/10 08:48:36;;;;;;;22.80;11.70;;;-3.70;99.90;;;;;;5126217;27;20040;-83
2024/01/10 08:51:02;;;;;;;24.92;11.38;;;-3.70;99.90;;;;;;5105410;27;20139;-83
2024/01/10 08:53:28;;;;;;;27.02;13.05;;;-3.70;99.90;;;;;;5086431;27;20120;-83
2024/01/10 08:55:54;;;;;;;26.20;12.95;;;-3.60;99.90;;;;;;5111745;27;20129;-83
2024/01/10 08:58:20;;;;;;;21.23;9.77;;;-3.60;99.90;;;;;;5078525;28;20094;-83
2024/01/10 09:00:46;;;;;;;23.63;11.48;;;-3.60;99.90;;;;;;5085573;27;20052;-82
2024/01/10 09:03:12;;;;;;;20.13;10.40;;;-3.50;99.90;;;;;;5103404;27;20104;-83
2024/01/10 09:05:38;;;;;;;16.88;5.70;;;-3.40;99.90;;;;;;5113277;27;20117;-83
2024/01/10 09:08:04;;;;;;;24.25;11.65;;;-3.40;99.90;;;;;;5112526;27;20733;-83
2024/01/10 09:10:29;;;;;;;22.77;11.20;;;-3.30;99.90;;;;;;5080283;28;20106;-82
2024/01/10 09:12:55;;;;;;;23.20;9.52;;;-3.30;99.90;;;;;;5081342;27;20042;-82
2024/01/10 09:15:21;;;;;;;25.98;11.07;;;-3.40;99.90;;;;;;5088370;27;20167;-83
2024/01/10 09:17:47;;;;;;;22.17;10.60;;;-3.40;99.90;;;;;;5123380;27;20480;-83
2024/01/10 09:20:13;;;;;;;24.27;11.02;;;-3.30;99.90;;;;;;5107695;27;20484;-82
2024/01/10 09:22:39;;;;;;;20.88;10.23;;;-3.30;99.90;;;;;;5098510;27;20081;-83
2024/01/10 09:25:05;;;;;;;22.48;11.00;;;-3.20;99.90;;;;;;5086950;27;20040;-82
2024/01/10 09:27:35;;;;;;;24.73;12.13;;;-3.20;99.90;;;;;;5106975;27;20395;-82
2024/01/10 09:30:10;;;;;;;20.02;9.23;;;-3.10;99.90;;;;;;5112569;27;20700;-83
2024/01/10 09:32:36;;;;;;;19.10;8.10;;;-3.00;99.90;;;;;;5089758;27;20062;-82
2024/01/10 09:35:02;;;;;;;24.35;11.35;;;-3.00;99.90;;;;;;5097508;27;20480;-82
2024/01/10 09:37:27;;;;;;;23.80;9.63;;;-3.00;99.90;;;;;;5086756;27;20907;-82
2024/01/10 09:39:53;;;;;;;21.92;8.55;;;-2.90;99.90;;;;;;5100804;27;20040;-83
2024/01/10 09:42:25;;;;;;;25.98;11.48;;;-2.80;99.90;;;;;;5099280;27;20040;-82
2024/01/10 09:44:51;;;;;;;21.58;9.88;;;-2.80;99.90;;;;;;5089063;28;20498;-82
2024/01/10 09:47:19;;;;;;;23.73;10.50;;;-2.80;99.90;;;;;;5098311;27;20039;-81
2024/01/10 09:49:46;;;;;;;23.05;9.88;;;-2.70;99.90;;;;;;5091989;27;20162;-83
2024/01/10 09:52:24;;;;;;;21.73;10.27;;;-2.60;99.90;;;;;;5107475;27;20042;-82
2024/01/10 09:54:55;;;;;;;23.52;11.55;;;-2.60;99.90;;;;;;5106592;27;20040;-82
2024/01/10 09:57:23;;;;;;;20.98;8.57;;;-2.60;99.90;;;;;;5087317;27;20080;-82
2024/01/10 09:59:51;;;;;;;22.08;8.73;;;-2.40;99.90;;;;;;5088718;27;20090;-82
2024/01/10 10:02:18;;;;;;;24.65;10.25;;;-2.40;99.90;;;;;;5115002;27;20031;-82
2024/01/10 10:05:05;;;;;;;24.80;11.25;;;-2.40;99.90;;;;;;5078271;28;20495;-82
2024/01/10 10:07:31;;;;;;;21.75;9.05;;;-2.40;99.90;;;;;;5142686;27;20036;-83
2024/01/10 10:09:56;;;;;;;20.13;9.80;;;-2.20;99.90;;;;;;5091975;28;20053;-82
2024/01/10 10:12:40;;;;;;;16.00;6.97;;;-2.10;99.90;;;;;;5146651;27;20095;-83
2024/01/10 10:15:32;;;;;;;18.05;8.15;;;-2.00;99.90;;;;;;5104345;27;20043;-83
2024/01/10 10:17:58;;;;;;;22.42;10.57;;;-1.90;99.90;;;;;;5087356;28;20071;-83
2024/01/10 10:20:32;;;;;;;23.55;10.05;;;-1.90;99.90;;;;;;5146068;27;20078;-83
2024/01/10 10:23:06;;;;;;;20.95;9.93;;;-1.90;99.90;;;;;;5109959;28;20047;-83
2024/01/10 10:25:58;;;;;;;22.60;9.88;;;-1.80;99.90;;;;;;5091009;28;20503;-83
2024/01/10 10:28:29;;;;;;;19.15;8.43;;;-1.70;99.90;;;;;;5116525;27;20061;-83
2024/01/10 10:30:55;;;;;;;18.95;7.63;;;-1.70;99.90;;;;;;5110737;28;20031;-83
2024/01/10 10:33:21;;;;;;;20.30;10.02;;;-1.60;99.90;;;;;;5129246;27;20085;-83
2024/01/10 10:35:49;;;;;;;15.52;6.95;;;-1.60;99.90;;;;;;5102966;28;20042;-83
2024/01/10 10:38:14;;;;;;;18.60;7.80;;;-1.50;99.90;;;;;;5084452;28;20092;-83
2024/01/10 10:40:40;;;;;;;19.83;9.15;;;-1.40;99.90;;;;;;5090829;28;20047;-84
2024/01/10 10:43:12;;;;;;;19.67;8.43;;;-1.30;99.90;;;;;;5107860;27;20094;-83
2024/01/10 10:45:39;;;;;;;21.88;8.52;;;-1.50;99.90;;;;;;5127752;27;20116;-83
2024/01/10 10:48:09;;;;;;;22.83;9.68;;;-1.30;99.90;;;;;;5093394;28;20039;-83
2024/01/10 10:50:36;;;;;;;21.02;9.50;;;-1.30;99.90;;;;;;5094919;28;20046;-83
2024/01/10 10:53:03;;;;;;;22.52;9.68;;;-1.20;99.90;;;;;;5111536;28;20043;-84
2024/01/10 10:55:29;;;;;;;22.15;9.85;;;-1.10;99.90;;;;;;5094487;28;20399;-83
2024/01/10 10:57:56;;;;;;;20.67;9.52;;;-1.20;99.90;;;;;;5093865;28;20038;-84
2024/01/10 11:00:26;;;;;;;20.98;9.30;;;-1.10;99.90;;;;;;5104119;28;20060;-84
2024/01/10 11:02:54;;;;;;;19.73;9.40;;;-1.00;99.90;;;;;;5108998;28;20059;-83
2024/01/10 11:05:21;;;;;;;19.58;9.02;;;-0.80;99.90;;;;;;5125913;27;20401;-84
2024/01/10 11:07:47;;;;;;;19.67;9.48;;;-0.90;99.90;;;;;;5104424;28;20107;-83
2024/01/10 11:10:27;;;;;;;15.40;7.50;;;-0.80;99.90;;;;;;5144015;27;20459;-83
2024/01/10 11:13:14;;;;;;;19.55;8.73;;;-0.80;99.90;;;;;;5111492;28;20053;-83
2024/01/10 11:15:57;;;;;;;18.88;8.88;;;-0.90;99.90;;;;;;5120939;27;20400;-83
2024/01/10 11:18:52;;;;;;;21.83;9.10;;;-0.80;99.90;;;;;;5139034;27;20081;-83
2024/01/10 11:21:46;;;;;;;18.63;7.60;;;-0.90;99.90;;;;;;5092594;28;20048;-83
2024/01/10 11:24:12;;;;;;;15.63;6.60;;;-0.70;99.90;;;;;;5074883;28;20097;-83
2024/01/10 11:26:38;;;;;;;24.83;7.47;;;-0.80;99.90;;;;;;5141188;27;20044;-83
2024/01/10 11:29:05;;;;;;;20.27;9.95;;;-0.80;99.90;;;;;;5094026;28;20047;-84
2024/01/10 11:31:32;;;;;;;20.60;8.65;;;-0.80;99.90;;;;;;5107391;28;20032;-83
2024/01/10 11:33:59;;;;;;;19.80;8.77;;;-0.90;99.90;;;;;;5143626;27;20036;-84
2024/01/10 11:36:26;;;;;;;16.77;7.90;;;-0.90;99.90;;;;;;5124343;27;20053;-83
2024/01/10 11:38:53;;;;;;;20.33;9.15;;;-1.00;99.90;;;;;;5106139;28;20115;-84
2024/01/10 11:41:23;;;;;;;16.65;7.55;;;-0.90;99.90;;;;;;5106703;28;20122;-83
2024/01/10 11:44:22;;;;;;;19.08;8.02;;;-0.90;99.90;;;;;;5092245;28;20040;-83
2024/01/10 11:46:54;;;;;;;18.15;8.73;;;-0.80;99.90;;;;;;5129222;27;20096;-83
2024/01/10 11:49:20;;;;;;;;;;;-0.80;99.90;;;;;;5149503;27;20085;-84
2024/01/10 11:51:48;;;;;;;22.35;9.68;;;-0.80;99.90;;;;;;5128067;27;19924;-83
2024/01/10 11:54:42;;;;;;;18.70;8.55;;;-0.80;99.90;;;;;;5096835;28;20104;-82
2024/01/10 11:57:12;;;;;;;20.30;9.23;;;-0.80;99.90;;;;;;5095749;27;20205;-84
2024/01/10 11:59:41;;;;;;;16.65;7.15;;;-0.80;99.90;;;;;;5113298;27;20202;-84
2024/01/10 12:02:08;;;;;;;18.13;8.38;;;-0.90;99.90;;;;;;5148310;27;20074;-83
2024/01/10 12:04:34;;;;;;;15.52;7.10;;;-0.80;99.90;;;;;;5098015;28;20105;-84
2024/01/10 12:07:05;;;;;;;18.17;8.00;;;-0.80;99.90;;;;;;5109512;28;20483;-83
2024/01/10 12:09:31;;;;;;;19.27;7.30;;;-0.80;99.90;;;;;;5107361;28;20065;-83
2024/01/10 12:11:56;;;;;;;16.70;8.05;;;-0.80;99.90;;;;;;5132319;27;20120;-84
2024/01/10 12:14:22;;;;;;;18.10;9.25;;;-0.80;99.90;;;;;;5112298;28;20043;-83
2024/01/10 12:16:48;;;;;;;17.73;8.90;;;-0.90;99.90;;;;;;5093730;28;20028;-83
2024/01/10 12:19:13;;;;;;;18.83;7.85;;;-0.90;99.90;;;;;;5131861;27;20438;-83
2024/01/10 12:21:39;;;;;;;17.38;7.80;;;-0.90;99.90;;;;;;5114189;27;20110;-83
2024/01/10 12:24:06;;;;;;;13.73;5.93;;;-0.80;99.90;;;;;;5113665;28;20123;-83
2024/01/10 12:26:32;;;;;;;16.55;8.63;;;-0.80;99.90;;;;;;5102203;28;20456;-83
2024/01/10 12:28:59;;;;;;;15.70;6.72;;;-0.70;99.90;;;;;;5145699;27;20031;-83
2024/01/10 12:31:29;;;;;;;12.98;6.30;;;-0.70;99.90;;;;;;5128291;27;20387;-83